Airfield :
LOGIN :

Register | Disclaimer

   EN    FR    IT 

 










Legend :    VFR   Marginal VFR   IFR   Intensive IFR   Very Intensive IFR
Visi :
Ceiling :
>= 8 km
>= 3000ft
5 to 8 km
1000 to 3000 ft
1500m to 5 km
500 to 1000 ft
800 to 1500m
200 to 500 ft
< 800m
< 200 ft
Symbols :   Thunderstorms  Fog  Heavy snow  Heavy precipitations  Wind > 20 kt
SIGMETs :     Misc.  Thunderstorms  Icing  Turbulence  Mountain Waves  Volcanic Ashes






- Airport Elevation : 126 ft
- IATA code : TIA


LATI - Rinas Mother Teresa Arpt - Tirana

CURRENT METAR :
  • 090750Z VRB02KT CAVOK 27/16 Q1016 NOSIG

EXPIRED METARs :
  • 090720Z 00000KT CAVOK 26/15 Q1016 NOSIG
  • 090650Z 15002KT 9999 FEW068 25/16 Q1016 NOSIG
  • 090620Z 00000KT CAVOK 24/16 Q1016 NOSIG
  • 090550Z VRB02KT CAVOK 22/15 Q1016 NOSIG
  • 090520Z VRB02KT 9999 NSC 21/16 Q1015 NOSIG

TAF TAF LATI
Valid from the 09 at 06:00 until the 10 at 06:00 UTC


090500Z 0906/1006 VRB03KT CAVOK TX34/0912 TN18/1004Z
TEMPO 0910/0916 33010KT



MET'MAP, your aeronautical weather chart ! - Copyright ORBIFLY December 2007 - Disclaimer

ORBIFLY MET'MAP TEAM :

Programming & Development : Alexandra Zaïnal
Concept & original design : Baudouin d'Aumeries
Assistance for programming : Marc-Olivier Méhu
Technical & hardware support : Manuel Goepfert

Contact : metmap@orbifly.com




SOURCES & CREDITS :

   NOAA